createdAt,value
2023-04-18T00:01:44.680Z,9.93
2023-04-18T00:04:12.434Z,10.60
2023-04-18T00:06:39.558Z,10.93
2023-04-18T00:09:06.419Z,8.95
2023-04-18T00:11:33.282Z,10.18
2023-04-18T00:13:59.912Z,12.25
2023-04-18T00:16:28.380Z,10.30
2023-04-18T00:18:55.549Z,11.07
2023-04-18T00:21:22.740Z,10.65
2023-04-18T00:23:52.639Z,11.18
2023-04-18T00:26:19.558Z,11.25
2023-04-18T00:28:46.248Z,13.07
2023-04-18T00:31:12.935Z,12.18
2023-04-18T00:33:39.808Z,11.80
2023-04-18T00:36:06.715Z,11.18
2023-04-18T00:38:33.376Z,11.73
2023-04-18T00:41:00.137Z,12.07
2023-04-18T00:43:26.985Z,10.38
2023-04-18T00:45:54.152Z,13.07
2023-04-18T00:48:21.074Z,11.85
2023-04-18T00:50:47.722Z,12.80
2023-04-18T00:53:15.530Z,12.95
2023-04-18T00:55:42.342Z,14.77
2023-04-18T00:58:09.393Z,14.63
2023-04-18T01:00:36.239Z,12.38
2023-04-18T01:03:03.185Z,12.73
2023-04-18T01:05:30.053Z,12.00
2023-04-18T01:08:01.264Z,11.15
2023-04-18T01:10:29.144Z,12.02
2023-04-18T01:13:18.629Z,11.90
2023-04-18T01:15:47.794Z,13.55
2023-04-18T01:18:18.011Z,12.65
2023-04-18T01:20:47.571Z,12.90
2023-04-18T01:23:15.437Z,13.73
2023-04-18T01:25:42.596Z,12.27
2023-04-18T01:28:09.747Z,13.15
2023-04-18T01:30:36.797Z,11.57
2023-04-18T01:33:05.166Z,11.90
2023-04-18T01:35:32.963Z,13.80
2023-04-18T01:38:00.104Z,13.23
2023-04-18T01:40:26.896Z,11.93
2023-04-18T01:42:56.386Z,13.48
2023-04-18T01:45:23.061Z,14.80
2023-04-18T01:47:49.761Z,12.55
2023-04-18T01:50:16.414Z,11.00
2023-04-18T01:52:43.069Z,11.45
2023-04-18T01:55:10.251Z,12.45
2023-04-18T01:57:36.960Z,12.70
2023-04-18T02:00:08.196Z,12.32
2023-04-18T02:02:34.931Z,13.07
2023-04-18T02:05:01.740Z,12.85
2023-04-18T02:07:28.434Z,12.15
2023-04-18T02:09:55.188Z,12.35
2023-04-18T02:12:21.762Z,14.45
2023-04-18T02:14:52.277Z,13.95
2023-04-18T02:17:21.517Z,13.38
2023-04-18T02:19:48.292Z,13.18
2023-04-18T02:22:14.939Z,14.93
2023-04-18T02:24:41.648Z,14.65
2023-04-18T02:27:08.500Z,14.98
2023-04-18T02:29:38.057Z,14.75
2023-04-18T02:32:05.107Z,14.30
2023-04-18T02:34:33.753Z,13.25
2023-04-18T02:37:00.524Z,15.73
2023-04-18T02:39:27.238Z,16.33
2023-04-18T02:41:53.838Z,17.45
2023-04-18T02:44:20.486Z,15.57
2023-04-18T02:46:47.097Z,17.10
2023-04-18T02:49:13.697Z,14.75
2023-04-18T02:51:40.283Z,16.15
2023-04-18T02:54:06.837Z,16.92
2023-04-18T02:56:33.687Z,14.45
2023-04-18T02:59:00.357Z,17.20
2023-04-18T03:01:26.975Z,18.20
2023-04-18T03:03:53.726Z,15.57
2023-04-18T03:06:20.326Z,16.75
2023-04-18T03:08:46.918Z,16.40
2023-04-18T03:11:13.482Z,17.40
2023-04-18T03:13:40.059Z,18.67
2023-04-18T03:16:07.174Z,19.40
2023-04-18T03:18:33.776Z,18.98
2023-04-18T03:21:00.827Z,19.20
2023-04-18T03:23:27.414Z,19.10
2023-04-18T03:25:54.147Z,20.48
2023-04-18T03:28:20.817Z,18.42
2023-04-18T03:30:47.650Z,19.33
2023-04-18T03:33:17.225Z,21.98
2023-04-18T03:35:43.818Z,20.17
2023-04-18T03:38:10.514Z,20.65
2023-04-18T03:40:37.095Z,20.95
2023-04-18T03:43:03.699Z,21.13
2023-04-18T03:45:30.475Z,23.40
2023-04-18T03:47:57.119Z,20.20
2023-04-18T03:50:25.853Z,19.92
2023-04-18T03:52:52.724Z,20.65
2023-04-18T03:55:19.907Z,22.63
2023-04-18T03:57:47.341Z,20.67
2023-04-18T04:00:14.691Z,21.00
2023-04-18T04:02:41.608Z,22.90
2023-04-18T04:05:09.032Z,22.15
2023-04-18T04:07:36.030Z,21.70
2023-04-18T04:10:02.798Z,21.73
2023-04-18T04:12:29.432Z,20.33
2023-04-18T04:14:56.019Z,19.85
2023-04-18T04:17:22.645Z,19.95
2023-04-18T04:19:50.338Z,21.27
2023-04-18T04:22:17.260Z,20.95
2023-04-18T04:24:44.176Z,19.40
2023-04-18T04:27:12.538Z,20.58
2023-04-18T04:29:39.764Z,22.20
2023-04-18T04:32:06.715Z,24.63
2023-04-18T04:34:34.477Z,20.63
2023-04-18T04:37:01.548Z,20.00
2023-04-18T04:39:28.277Z,21.17
2023-04-18T04:41:55.246Z,23.75
2023-04-18T04:44:22.058Z,21.83
2023-04-18T04:46:49.793Z,22.70
2023-04-18T04:49:16.401Z,24.38
2023-04-18T04:51:43.050Z,24.73
2023-04-18T04:54:09.652Z,21.23
2023-04-18T04:56:36.880Z,26.17
2023-04-18T04:59:06.274Z,23.27
2023-04-18T05:01:33.765Z,22.40
2023-04-18T05:04:00.493Z,21.88
2023-04-18T05:06:27.683Z,25.05
2023-04-18T05:08:56.001Z,24.77
2023-04-18T05:11:22.575Z,24.27
2023-04-18T05:13:49.310Z,24.92
2023-04-18T05:16:16.034Z,26.67
2023-04-18T05:18:42.840Z,26.15
2023-04-18T05:21:09.588Z,26.23
2023-04-18T05:23:37.167Z,24.23
2023-04-18T05:26:05.255Z,29.45
2023-04-18T05:28:32.390Z,27.58
2023-04-18T05:31:01.898Z,26.85
2023-04-18T05:33:29.606Z,22.80
2023-04-18T05:35:57.231Z,25.60
2023-04-18T05:38:24.132Z,26.15
2023-04-18T05:40:55.914Z,25.83
2023-04-18T05:43:23.080Z,22.42
2023-04-18T05:45:52.348Z,26.60
2023-04-18T05:48:19.387Z,25.42
2023-04-18T05:50:46.145Z,27.52
2023-04-18T05:53:12.962Z,28.83
2023-04-18T05:55:41.006Z,25.25
2023-04-18T05:58:07.868Z,26.83
2023-04-18T06:00:34.842Z,28.35
2023-04-18T06:03:01.521Z,26.40
2023-04-18T06:05:28.871Z,24.98
2023-04-18T06:07:55.707Z,31.27
2023-04-18T06:10:22.408Z,26.38
2023-04-18T06:12:49.014Z,27.95
2023-04-18T06:15:15.572Z,26.60
2023-04-18T06:17:42.404Z,27.40
2023-04-18T06:20:09.709Z,25.83
2023-04-18T06:22:36.736Z,31.88
2023-04-18T06:25:03.658Z,28.15
2023-04-18T06:27:31.943Z,28.92
2023-04-18T06:29:58.983Z,27.38
2023-04-18T06:32:25.797Z,26.05
2023-04-18T06:34:53.297Z,26.00
2023-04-18T06:37:20.425Z,28.92
2023-04-18T06:39:47.225Z,30.05
2023-04-18T06:42:13.953Z,26.95
2023-04-18T06:44:42.886Z,29.50
2023-04-18T06:47:11.135Z,28.70
2023-04-18T06:49:37.736Z,26.50
2023-04-18T06:52:04.382Z,26.60
2023-04-18T06:54:31.005Z,28.15
2023-04-18T06:56:57.669Z,28.08
2023-04-18T06:59:24.298Z,29.40
2023-04-18T07:01:51.298Z,26.15
2023-04-18T07:04:18.191Z,27.85
2023-04-18T07:06:45.314Z,27.20
2023-04-18T07:09:11.971Z,26.90
2023-04-18T07:11:40.581Z,26.27
2023-04-18T07:14:07.213Z,24.95
2023-04-18T07:16:34.613Z,26.77
2023-04-18T07:19:01.348Z,24.73
2023-04-18T07:21:28.125Z,26.10
2023-04-18T07:23:54.789Z,29.83
2023-04-18T07:26:21.405Z,28.55
2023-04-18T07:28:49.176Z,26.88
2023-04-18T07:31:16.796Z,27.65
2023-04-18T07:33:43.669Z,26.48
2023-04-18T07:36:10.468Z,24.50
2023-04-18T07:38:37.195Z,27.02
2023-04-18T07:41:04.089Z,26.58
2023-04-18T07:43:30.693Z,24.85
2023-04-18T07:45:57.441Z,25.40
2023-04-18T07:48:25.530Z,28.35
2023-04-18T07:50:52.343Z,26.42
2023-04-18T07:53:19.042Z,28.60
2023-04-18T07:55:46.694Z,25.15
2023-04-18T07:58:13.557Z,26.00
2023-04-18T08:00:42.444Z,25.02
2023-04-18T08:03:12.665Z,26.65
2023-04-18T08:05:40.479Z,25.02
2023-04-18T08:08:08.999Z,25.25
2023-04-18T08:10:36.093Z,23.17
2023-04-18T08:13:03.503Z,24.95
2023-04-18T08:15:32.415Z,24.70
2023-04-18T08:18:00.028Z,23.25
2023-04-18T08:20:27.065Z,24.58
2023-04-18T08:23:06.135Z,25.70
2023-04-18T08:25:36.535Z,24.77
2023-04-18T08:28:04.166Z,26.63
2023-04-18T08:30:31.195Z,23.63
2023-04-18T08:32:58.141Z,21.65
2023-04-18T08:35:24.695Z,21.73
2023-04-18T08:37:51.352Z,21.58
2023-04-18T08:40:18.654Z,21.13
2023-04-18T08:42:45.537Z,22.35
2023-04-18T08:45:15.358Z,22.63
2023-04-18T08:47:42.521Z,24.50
2023-04-18T08:50:10.731Z,24.10
2023-04-18T08:52:39.771Z,23.52
2023-04-18T08:55:07.436Z,25.02
2023-04-18T08:57:36.067Z,21.23
2023-04-18T09:00:10.289Z,23.10
2023-04-18T09:02:43.741Z,19.15
2023-04-18T09:05:21.621Z,22.80
2023-04-18T09:07:50.087Z,22.50
2023-04-18T09:10:38.541Z,23.58
2023-04-18T09:13:05.633Z,18.17
2023-04-18T09:15:32.423Z,21.33
2023-04-18T09:18:02.497Z,18.95
2023-04-18T09:20:44.582Z,19.40
2023-04-18T09:23:14.883Z,18.88
2023-04-18T09:25:44.460Z,17.17
2023-04-18T09:28:30.531Z,19.98
2023-04-18T09:31:19.165Z,18.85
2023-04-18T09:33:57.029Z,20.85
2023-04-18T09:36:27.317Z,17.40
2023-04-18T09:38:56.997Z,18.08
2023-04-18T09:41:24.293Z,18.38
2023-04-18T09:44:12.376Z,17.63
2023-04-18T09:46:40.900Z,16.73
2023-04-18T09:49:10.865Z,17.08
2023-04-18T09:51:40.394Z,17.30
2023-04-18T09:54:08.786Z,16.50
2023-04-18T09:56:38.024Z,16.70
2023-04-18T09:59:09.447Z,16.73
2023-04-18T10:01:36.613Z,18.98
2023-04-18T10:04:06.814Z,18.27
2023-04-18T10:06:39.748Z,17.38
2023-04-18T10:09:09.272Z,15.33
2023-04-18T10:11:36.559Z,19.30
2023-04-18T10:14:07.038Z,16.38
2023-04-18T10:16:35.646Z,16.08
2023-04-18T10:19:21.311Z,14.90
2023-04-18T10:21:55.026Z,16.15
2023-04-18T10:24:50.318Z,17.85
2023-04-18T10:27:17.892Z,19.38
2023-04-18T10:29:50.182Z,18.27
2023-04-18T10:32:22.345Z,16.60
2023-04-18T10:34:50.289Z,16.60
2023-04-18T10:37:18.940Z,16.02
2023-04-18T10:40:00.417Z,17.13
2023-04-18T10:42:45.628Z,18.25
2023-04-18T10:45:22.891Z,15.70
2023-04-18T10:47:49.760Z,19.58
2023-04-18T10:50:17.414Z,17.92
2023-04-18T10:52:44.889Z,15.82
2023-04-18T10:55:16.639Z,17.08
2023-04-18T10:57:44.557Z,15.75
2023-04-18T11:00:14.088Z,14.75
2023-04-18T11:02:47.852Z,14.82
2023-04-18T11:07:46.257Z,16.13
2023-04-18T11:10:13.517Z,17.58
2023-04-18T11:12:41.082Z,14.90
2023-04-18T11:15:22.897Z,13.65
2023-04-18T11:18:02.067Z,13.57
2023-04-18T11:20:30.403Z,14.25
2023-04-18T11:22:58.780Z,13.77
2023-04-18T11:25:29.020Z,13.40
2023-04-18T11:27:59.469Z,12.15
2023-04-18T11:30:26.201Z,14.90
2023-04-18T11:32:54.133Z,13.95
2023-04-18T11:35:20.872Z,13.55
2023-04-18T11:37:49.886Z,15.05
2023-04-18T11:40:16.578Z,14.07
2023-04-18T11:42:43.303Z,13.40
2023-04-18T11:45:14.335Z,13.00
2023-04-18T11:47:43.143Z,13.15
2023-04-18T11:50:12.364Z,11.93
2023-04-18T11:52:41.574Z,12.13
2023-04-18T11:55:21.153Z,13.20
2023-04-18T11:57:55.871Z,13.77
2023-04-18T12:00:31.587Z,14.95
2023-04-18T12:02:59.329Z,12.93
2023-04-18T12:05:28.192Z,14.88
2023-04-18T12:07:55.541Z,20.83
2023-04-18T12:10:22.137Z,14.15
2023-04-18T12:12:54.734Z,16.08
2023-04-18T12:15:24.308Z,13.00
2023-04-18T12:17:53.783Z,15.00
2023-04-18T12:20:20.454Z,17.52
2023-04-18T12:22:51.367Z,15.02
2023-04-18T12:25:26.278Z,13.50
2023-04-18T12:28:01.362Z,13.52
2023-04-18T12:30:34.149Z,12.15
2023-04-18T12:33:04.238Z,13.05
2023-04-18T12:35:31.922Z,14.13
2023-04-18T12:38:02.824Z,14.75
2023-04-18T12:40:30.378Z,13.65
2023-04-18T12:42:56.951Z,16.77
2023-04-18T12:45:24.099Z,17.17
2023-04-18T12:47:52.218Z,11.95
2023-04-18T12:50:25.947Z,12.73
2023-04-18T12:52:59.076Z,11.15
2023-04-18T12:55:26.422Z,11.95
2023-04-18T12:57:57.995Z,12.02
2023-04-18T13:00:27.834Z,11.85
2023-04-18T13:02:54.563Z,11.98
2023-04-18T13:05:24.806Z,15.45
2023-04-18T13:07:58.579Z,11.18
2023-04-18T13:10:28.545Z,13.23
2023-04-18T13:12:55.674Z,11.90
2023-04-18T13:15:22.753Z,11.43
2023-04-18T13:17:49.825Z,20.63
2023-04-18T13:20:16.634Z,12.45
2023-04-18T13:22:43.508Z,11.00
2023-04-18T13:25:10.942Z,10.25
2023-04-18T13:27:41.386Z,10.55
2023-04-18T13:30:10.674Z,10.52
2023-04-18T13:32:39.256Z,11.20
2023-04-18T13:35:08.543Z,10.30
2023-04-18T13:37:35.586Z,9.10
2023-04-18T13:40:05.593Z,9.65
2023-04-18T13:42:33.767Z,9.88
2023-04-18T13:45:00.348Z,9.52
2023-04-18T13:47:27.243Z,9.50
2023-04-18T13:49:53.958Z,10.23
2023-04-18T13:52:20.623Z,10.35
2023-04-18T13:54:50.370Z,9.77
2023-04-18T13:57:16.954Z,9.30
2023-04-18T13:59:43.898Z,12.63
2023-04-18T14:02:11.103Z,9.55
2023-04-18T14:04:38.165Z,10.32
2023-04-18T14:07:06.502Z,6.47
2023-04-18T14:09:33.284Z,8.80
2023-04-18T14:11:59.994Z,10.32
2023-04-18T14:14:26.800Z,7.63
2023-04-18T14:16:54.189Z,9.55
2023-04-18T14:19:21.026Z,9.88
2023-04-18T14:21:48.455Z,9.02
2023-04-18T14:24:15.378Z,10.25
2023-04-18T14:26:42.207Z,8.70
2023-04-18T14:29:11.784Z,8.13
2023-04-18T14:31:42.372Z,9.18
2023-04-18T14:34:11.447Z,8.50
2023-04-18T14:36:39.109Z,10.65
2023-04-18T14:39:07.518Z,11.40
2023-04-18T14:41:35.449Z,12.38
2023-04-18T14:44:10.222Z,12.73
2023-04-18T14:46:38.630Z,13.00
2023-04-18T14:49:05.812Z,11.20
2023-04-18T14:51:32.818Z,12.38
2023-04-18T14:54:06.611Z,14.15
2023-04-18T14:59:02.426Z,12.63
2023-04-18T15:01:29.676Z,9.27
2023-04-18T15:03:56.719Z,11.10
2023-04-18T15:06:23.458Z,11.43
2023-04-18T15:08:50.408Z,10.05
2023-04-18T15:11:16.945Z,10.88
2023-04-18T15:13:44.709Z,10.98
2023-04-18T15:16:11.554Z,9.10
2023-04-18T15:18:38.314Z,10.25
2023-04-18T15:21:06.984Z,9.23
2023-04-18T15:23:34.176Z,9.45
2023-04-18T15:26:00.974Z,9.48
2023-04-18T15:28:28.507Z,9.88
2023-04-18T15:30:55.166Z,9.13
2023-04-18T15:33:21.884Z,9.20
2023-04-18T15:35:48.582Z,9.85
2023-04-18T15:38:15.437Z,9.20
2023-04-18T15:40:43.603Z,8.30
2023-04-18T15:43:17.356Z,8.23
2023-04-18T15:45:44.712Z,8.57
2023-04-18T15:48:13.144Z,8.82
2023-04-18T15:50:40.101Z,11.00
2023-04-18T15:53:06.886Z,8.93
2023-04-18T15:55:34.366Z,10.35
2023-04-18T15:58:01.727Z,8.48
2023-04-18T16:00:29.632Z,9.85
2023-04-18T16:02:56.473Z,9.30
2023-04-18T16:05:23.405Z,11.55
2023-04-18T16:07:50.077Z,11.20
2023-04-18T16:10:16.815Z,11.35
2023-04-18T16:12:43.527Z,10.75
2023-04-18T16:15:11.205Z,8.73
2023-04-18T16:17:38.504Z,9.77
2023-04-18T16:20:09.206Z,12.57
2023-04-18T16:22:37.417Z,10.15
2023-04-18T16:25:04.688Z,9.88
2023-04-18T16:27:33.071Z,9.65
2023-04-18T16:29:59.754Z,11.68
2023-04-18T16:32:26.527Z,11.40
2023-04-18T16:34:53.204Z,12.88
2023-04-18T16:37:20.095Z,10.25
2023-04-18T16:39:47.000Z,10.52
2023-04-18T16:42:15.489Z,12.85
2023-04-18T16:44:42.812Z,10.27
2023-04-18T16:47:09.535Z,11.65
2023-04-18T16:49:39.124Z,10.07
2023-04-18T16:52:05.770Z,10.80
2023-04-18T16:54:32.423Z,10.60
2023-04-18T16:56:59.104Z,10.32
2023-04-18T16:59:26.073Z,11.13
2023-04-18T17:01:52.864Z,11.77
2023-04-18T17:04:19.618Z,10.27
2023-04-18T17:06:46.686Z,10.38
2023-04-18T17:09:14.699Z,11.90
2023-04-18T17:11:41.758Z,10.55
2023-04-18T17:14:08.901Z,12.35
2023-04-18T17:16:38.817Z,13.30
2023-04-18T17:19:05.826Z,12.57
2023-04-18T17:21:34.696Z,12.40
2023-04-18T17:24:03.828Z,12.20
2023-04-18T17:26:31.179Z,14.38
2023-04-18T17:28:57.805Z,24.52
2023-04-18T17:31:24.486Z,10.15
2023-04-18T17:33:51.083Z,11.50
2023-04-18T17:36:17.730Z,16.35
2023-04-18T17:38:50.719Z,14.15
2023-04-18T17:41:19.286Z,11.10
2023-04-18T17:43:46.694Z,13.05
2023-04-18T17:46:14.339Z,11.77
2023-04-18T17:48:41.382Z,10.20
2023-04-18T17:51:08.041Z,11.77
2023-04-18T17:53:34.588Z,11.68
2023-04-18T17:56:01.253Z,14.52
2023-04-18T17:58:28.434Z,10.98
2023-04-18T18:00:55.175Z,12.88
2023-04-18T18:03:21.970Z,10.82
2023-04-18T18:05:49.836Z,11.70
2023-04-18T18:08:17.234Z,11.13
2023-04-18T18:10:46.562Z,10.02
2023-04-18T18:13:13.435Z,11.13
2023-04-18T18:15:40.006Z,10.30
2023-04-18T18:18:06.796Z,9.90
2023-04-18T18:20:33.502Z,11.10
2023-04-18T18:23:00.107Z,11.68
2023-04-18T18:25:27.545Z,11.40
2023-04-18T18:27:54.606Z,11.75
2023-04-18T18:30:21.291Z,11.98
2023-04-18T18:32:47.959Z,11.20
2023-04-18T18:35:14.564Z,11.25
2023-04-18T18:37:41.167Z,11.90
2023-04-18T18:40:08.671Z,10.93
2023-04-18T18:42:35.466Z,13.15
2023-04-18T18:45:03.608Z,11.38
2023-04-18T18:47:30.653Z,12.20
2023-04-18T18:49:57.437Z,13.10
2023-04-18T18:52:30.399Z,11.88
2023-04-18T18:55:03.968Z,11.57
2023-04-18T18:57:34.541Z,10.80
2023-04-18T19:00:12.243Z,13.20
2023-04-18T19:02:46.942Z,11.27
2023-04-18T19:05:24.424Z,12.07
2023-04-18T19:07:52.918Z,10.90
2023-04-18T19:10:24.256Z,13.35
2023-04-18T19:12:53.522Z,12.02
2023-04-18T19:15:28.189Z,12.13
2023-04-18T19:18:08.276Z,12.88
2023-04-18T19:20:35.294Z,13.73
2023-04-18T19:23:07.423Z,12.57
2023-04-18T19:25:46.696Z,12.20
2023-04-18T19:28:20.552Z,12.32
2023-04-18T19:33:19.824Z,13.77
2023-04-18T19:35:46.836Z,12.68
2023-04-18T19:38:19.176Z,14.52
2023-04-18T19:41:12.356Z,13.68
2023-04-18T19:43:43.411Z,11.13
2023-04-18T19:46:15.737Z,12.82
2023-04-18T19:48:42.915Z,14.35
2023-04-18T19:51:12.931Z,12.43
2023-04-18T19:53:45.622Z,12.20
2023-04-18T19:56:29.128Z,10.85
2023-04-18T19:59:02.296Z,13.27
2023-04-18T20:01:31.672Z,11.88
2023-04-18T20:04:01.533Z,11.50
2023-04-18T20:06:30.560Z,12.63
2023-04-18T20:08:57.655Z,10.90
2023-04-18T20:11:31.134Z,11.85
2023-04-18T20:14:02.843Z,12.60
2023-04-18T20:16:35.611Z,12.40
2023-04-18T20:19:03.924Z,12.47
2023-04-18T20:21:31.442Z,12.90
2023-04-18T20:23:59.368Z,11.32
2023-04-18T20:26:33.700Z,13.15
2023-04-18T20:29:04.304Z,11.57
2023-04-18T20:31:36.433Z,13.93
2023-04-18T20:34:03.537Z,13.10
2023-04-18T20:36:41.847Z,12.27
2023-04-18T20:39:09.585Z,11.32
2023-04-18T20:41:37.284Z,12.88
2023-04-18T20:44:11.803Z,12.13
2023-04-18T20:46:43.636Z,13.73
2023-04-18T20:49:11.203Z,14.70
2023-04-18T20:51:49.495Z,11.02
2023-04-18T20:54:17.120Z,13.45
2023-04-18T20:56:43.883Z,14.05
2023-04-18T20:59:10.559Z,12.77
2023-04-18T21:01:40.122Z,13.73
2023-04-18T21:04:07.072Z,12.93
2023-04-18T21:06:33.832Z,13.48
2023-04-18T21:09:00.505Z,13.35
2023-04-18T21:11:27.100Z,14.07
2023-04-18T21:13:53.742Z,14.18
2023-04-18T21:16:20.307Z,11.55
2023-04-18T21:18:46.903Z,14.68
2023-04-18T21:21:13.743Z,14.05
2023-04-18T21:23:44.283Z,13.95
2023-04-18T21:26:13.894Z,16.27
2023-04-18T21:28:53.800Z,13.77
2023-04-18T21:31:20.674Z,16.50
2023-04-18T21:33:48.044Z,14.68
2023-04-18T21:36:14.742Z,16.25
2023-04-18T21:38:41.295Z,15.00
2023-04-18T21:41:07.959Z,17.25
2023-04-18T21:43:34.694Z,17.92
2023-04-18T21:46:01.335Z,13.68
2023-04-18T21:48:27.995Z,15.15
2023-04-18T21:50:55.527Z,16.40
2023-04-18T21:53:22.178Z,15.68
2023-04-18T21:55:48.835Z,16.02
2023-04-18T21:58:15.420Z,14.35
2023-04-18T22:00:42.002Z,15.15
2023-04-18T22:03:08.993Z,16.35
2023-04-18T22:05:36.510Z,18.33
2023-04-18T22:08:03.427Z,14.52
2023-04-18T22:10:30.007Z,15.00
2023-04-18T22:12:57.644Z,16.83
2023-04-18T22:15:24.353Z,17.80
2023-04-18T22:17:51.016Z,14.43
2023-04-18T22:20:17.662Z,18.75
2023-04-18T22:22:44.349Z,16.33
2023-04-18T22:25:11.752Z,15.55
2023-04-18T22:27:39.179Z,14.55
2023-04-18T22:30:06.391Z,17.67
2023-04-18T22:32:33.015Z,15.80
2023-04-18T22:34:59.601Z,16.60
2023-04-18T22:37:26.193Z,15.60
2023-04-18T22:39:55.572Z,15.10
2023-04-18T22:42:22.132Z,15.98
2023-04-18T22:44:48.726Z,16.73
2023-04-18T22:47:15.335Z,14.30
2023-04-18T22:49:42.115Z,16.60
2023-04-18T22:52:08.686Z,15.90
2023-04-18T22:54:39.432Z,14.18
2023-04-18T22:57:06.077Z,16.30
2023-04-18T22:59:32.701Z,17.67
2023-04-18T23:01:59.546Z,16.27
2023-04-18T23:04:30.177Z,16.58
2023-04-18T23:06:56.957Z,17.35
2023-04-18T23:09:24.490Z,15.88
2023-04-18T23:11:51.190Z,15.50
2023-04-18T23:14:17.794Z,15.98
2023-04-18T23:16:44.611Z,14.85
2023-04-18T23:19:11.345Z,15.80
2023-04-18T23:21:37.941Z,15.80
2023-04-18T23:24:04.674Z,14.70
2023-04-18T23:26:31.359Z,17.35
2023-04-18T23:28:58.129Z,13.98
2023-04-18T23:31:24.874Z,14.50
2023-04-18T23:33:51.455Z,15.07
2023-04-18T23:36:18.103Z,16.77
2023-04-18T23:38:44.733Z,16.20
2023-04-18T23:41:11.419Z,14.50
2023-04-18T23:43:38.072Z,14.88
2023-04-18T23:46:04.966Z,15.75
2023-04-18T23:48:31.574Z,15.68
2023-04-18T23:50:58.264Z,15.23
2023-04-18T23:53:25.180Z,14.15
2023-04-18T23:55:53.325Z,15.35
2023-04-18T23:58:19.899Z,15.27
